createdAt,value
2023-05-12T00:02:09.216Z,96.79
2023-05-12T00:04:40.116Z,99.01
2023-05-12T00:07:10.388Z,96.05
2023-05-12T00:09:42.965Z,91.88
2023-05-12T00:12:13.259Z,94.17
2023-05-12T00:14:43.985Z,92.90
2023-05-12T00:17:15.360Z,100.00
2023-05-12T00:19:45.711Z,94.75
2023-05-12T00:22:16.895Z,97.46
2023-05-12T00:24:47.051Z,91.10
2023-05-12T00:27:17.433Z,98.01
2023-05-12T00:29:47.719Z,93.14
2023-05-12T00:32:18.165Z,91.11
2023-05-12T00:34:48.736Z,82.44
2023-05-12T00:37:18.914Z,87.33
2023-05-12T00:39:49.109Z,80.80
2023-05-12T00:42:19.788Z,88.39
2023-05-12T00:44:50.153Z,87.36
2023-05-12T00:47:21.936Z,79.83
2023-05-12T00:49:52.571Z,88.13
2023-05-12T00:52:23.057Z,92.27
2023-05-12T00:54:53.704Z,87.19
2023-05-12T00:57:24.526Z,86.54
2023-05-12T00:59:54.914Z,90.53
2023-05-12T01:02:25.737Z,98.61
2023-05-12T01:04:56.442Z,100.00
2023-05-12T01:07:27.507Z,99.34
2023-05-12T01:09:58.073Z,93.20
2023-05-12T01:12:33.733Z,100.00
2023-05-12T01:15:06.191Z,98.08
2023-05-12T01:17:36.620Z,93.30
2023-05-12T01:20:09.394Z,95.12
2023-05-12T01:22:40.184Z,96.99
2023-05-12T01:25:13.130Z,92.70
2023-05-12T01:27:43.882Z,94.48
2023-05-12T01:30:17.792Z,92.73
2023-05-12T01:32:48.345Z,86.56
2023-05-12T01:35:18.686Z,89.93
2023-05-12T01:37:56.574Z,87.12
2023-05-12T01:40:27.221Z,83.42
2023-05-12T01:42:58.658Z,84.75
2023-05-12T01:45:32.727Z,83.33
2023-05-12T01:48:03.323Z,85.09
2023-05-12T01:50:33.675Z,88.75
2023-05-12T01:53:05.248Z,88.96
2023-05-12T01:55:36.044Z,84.26
2023-05-12T01:58:06.299Z,83.44
2023-05-12T02:00:37.716Z,77.47
2023-05-12T02:03:16.036Z,82.44
2023-05-12T02:05:46.497Z,84.22
2023-05-12T02:08:16.644Z,86.96
2023-05-12T02:10:47.274Z,86.04
2023-05-12T02:13:17.599Z,83.32
2023-05-12T02:15:48.555Z,79.49
2023-05-12T02:18:19.816Z,87.28
2023-05-12T02:20:50.628Z,79.83
2023-05-12T02:23:21.146Z,85.56
2023-05-12T02:25:51.669Z,80.40
2023-05-12T02:28:22.151Z,81.31
2023-05-12T02:30:54.403Z,84.80
2023-05-12T02:33:25.000Z,83.58
2023-05-12T02:35:55.820Z,85.77
2023-05-12T02:38:27.309Z,88.42
2023-05-12T02:40:57.859Z,89.21
2023-05-12T02:43:28.640Z,85.72
2023-05-12T02:45:58.993Z,85.87
2023-05-12T02:48:29.811Z,88.24
2023-05-12T02:51:00.523Z,90.96
2023-05-12T02:53:31.433Z,91.12
2023-05-12T02:56:01.770Z,88.82
2023-05-12T02:58:32.184Z,93.20
2023-05-12T03:01:10.129Z,90.61
2023-05-12T03:03:43.660Z,87.24
2023-05-12T03:06:13.998Z,88.48
2023-05-12T03:08:44.300Z,86.75
2023-05-12T03:11:14.601Z,84.01
2023-05-12T03:13:45.744Z,80.94
2023-05-12T03:16:19.602Z,84.31
2023-05-12T03:18:51.421Z,81.69
2023-05-12T03:21:21.614Z,83.93
2023-05-12T03:23:52.063Z,80.44
2023-05-12T03:26:22.540Z,85.01
2023-05-12T03:28:52.995Z,82.53
2023-05-12T03:31:24.075Z,75.59
2023-05-12T03:33:55.032Z,82.28
2023-05-12T03:36:25.918Z,81.76
2023-05-12T03:38:56.447Z,83.20
2023-05-12T03:41:26.585Z,87.26
2023-05-12T03:43:57.169Z,85.55
2023-05-12T03:46:27.845Z,86.18
2023-05-12T03:48:58.314Z,84.32
2023-05-12T03:51:29.603Z,87.45
2023-05-12T03:53:59.980Z,89.43
2023-05-12T03:56:30.908Z,97.95
2023-05-12T03:59:01.075Z,100.00
2023-05-12T04:01:31.471Z,100.00
2023-05-12T04:04:03.974Z,100.00
2023-05-12T04:06:34.608Z,100.00
2023-05-12T04:09:06.272Z,100.00
2023-05-12T04:11:36.478Z,100.00
2023-05-12T04:14:06.813Z,100.00
2023-05-12T04:16:42.091Z,100.00
2023-05-12T04:19:12.422Z,100.00
2023-05-12T04:21:42.564Z,100.00
2023-05-12T04:24:12.733Z,100.00
2023-05-12T04:26:43.082Z,100.00
2023-05-12T04:29:14.745Z,100.00
2023-05-12T04:31:45.117Z,100.00
2023-05-12T04:34:15.420Z,100.00
2023-05-12T04:36:45.850Z,100.00
2023-05-12T04:39:16.343Z,100.00
2023-05-12T04:41:46.688Z,100.00
2023-05-12T04:44:17.778Z,100.00
2023-05-12T04:46:48.327Z,100.00
2023-05-12T04:49:18.633Z,100.00
2023-05-12T04:51:50.681Z,100.00
2023-05-12T04:54:21.055Z,100.00
2023-05-12T04:56:51.426Z,100.00
2023-05-12T04:59:22.090Z,100.00
2023-05-12T05:01:54.608Z,100.00
2023-05-12T05:04:25.402Z,100.00
2023-05-12T05:06:57.354Z,100.00
2023-05-12T05:09:30.407Z,100.00
2023-05-12T05:12:03.046Z,100.00
2023-05-12T05:14:33.899Z,100.00
2023-05-12T05:17:05.410Z,100.00
2023-05-12T05:19:50.968Z,100.00
2023-05-12T05:22:26.261Z,100.00
2023-05-12T05:24:56.753Z,100.00
2023-05-12T05:27:27.071Z,100.00
2023-05-12T05:29:57.522Z,100.00
2023-05-12T05:32:29.362Z,100.00
2023-05-12T05:35:02.678Z,100.00
2023-05-12T05:37:35.557Z,100.00
2023-05-12T05:40:06.613Z,100.00
2023-05-12T05:42:37.117Z,100.00
2023-05-12T05:45:07.973Z,100.00
2023-05-12T05:47:39.047Z,100.00
2023-05-12T05:50:10.726Z,100.00
2023-05-12T05:52:43.673Z,100.00
2023-05-12T05:55:14.413Z,100.00
2023-05-12T05:57:44.893Z,100.00
2023-05-12T06:00:15.853Z,100.00
2023-05-12T06:02:50.192Z,100.00
2023-05-12T06:05:24.377Z,100.00
2023-05-12T06:07:54.751Z,100.00
2023-05-12T06:10:25.129Z,100.00
2023-05-12T06:12:55.442Z,100.00
2023-05-12T06:15:25.785Z,100.00
2023-05-12T06:17:56.165Z,100.00
2023-05-12T06:20:30.681Z,100.00
2023-05-12T06:23:02.378Z,100.00
2023-05-12T06:25:34.742Z,100.00
2023-05-12T06:28:07.222Z,100.00
2023-05-12T06:30:37.826Z,100.00
2023-05-12T06:33:08.964Z,100.00
2023-05-12T06:35:42.128Z,100.00
2023-05-12T06:38:13.647Z,100.00
2023-05-12T06:40:46.497Z,100.00
2023-05-12T06:43:17.178Z,100.00
2023-05-12T06:45:48.398Z,100.00
2023-05-12T06:48:18.601Z,100.00
2023-05-12T06:50:49.744Z,100.00
2023-05-12T06:53:22.846Z,100.00
2023-05-12T06:55:57.160Z,100.00
2023-05-12T06:58:27.765Z,100.00
2023-05-12T07:00:58.008Z,100.00
2023-05-12T07:03:28.427Z,100.00
2023-05-12T07:05:58.839Z,100.00
2023-05-12T07:08:29.308Z,100.00
2023-05-12T07:11:01.400Z,100.00
2023-05-12T07:13:31.784Z,100.00
2023-05-12T07:16:02.789Z,100.00
2023-05-12T07:18:52.130Z,100.00
2023-05-12T07:21:35.437Z,100.00
2023-05-12T07:24:07.770Z,100.00
2023-05-12T07:26:38.136Z,100.00
2023-05-12T07:29:09.105Z,100.00
2023-05-12T07:31:40.127Z,100.00
2023-05-12T07:34:10.770Z,100.00
2023-05-12T07:36:41.241Z,100.00
2023-05-12T07:39:11.513Z,100.00
2023-05-12T07:41:41.868Z,100.00
2023-05-12T07:44:12.251Z,100.00
2023-05-12T07:46:42.772Z,100.00
2023-05-12T07:49:13.116Z,100.00
2023-05-12T07:51:43.503Z,100.00
2023-05-12T07:54:13.832Z,100.00
2023-05-12T07:56:44.218Z,100.00
2023-05-12T07:59:15.814Z,100.00
2023-05-12T08:01:46.131Z,100.00
2023-05-12T08:04:16.747Z,100.00
2023-05-12T08:06:47.075Z,100.00
2023-05-12T08:09:17.454Z,100.00
2023-05-12T08:11:49.414Z,100.00
2023-05-12T08:14:21.624Z,100.00
2023-05-12T08:16:55.004Z,100.00
2023-05-12T08:19:25.475Z,100.00
2023-05-12T08:21:55.594Z,100.00
2023-05-12T08:24:26.527Z,100.00
2023-05-12T08:26:56.874Z,100.00
2023-05-12T08:29:27.211Z,100.00
2023-05-12T08:31:57.530Z,100.00
2023-05-12T08:34:27.876Z,100.00
2023-05-12T08:36:58.051Z,100.00
2023-05-12T08:39:32.354Z,100.00
2023-05-12T08:42:12.112Z,100.00
2023-05-12T08:44:42.574Z,100.00
2023-05-12T08:47:14.741Z,100.00
2023-05-12T08:49:45.151Z,100.00
2023-05-12T08:52:15.646Z,100.00
2023-05-12T08:54:55.575Z,100.00
2023-05-12T08:57:28.716Z,100.00
2023-05-12T09:00:01.442Z,100.00
2023-05-12T09:02:51.455Z,100.00
2023-05-12T09:05:24.308Z,100.00
2023-05-12T09:07:55.294Z,100.00
2023-05-12T09:10:34.930Z,100.00
2023-05-12T09:13:07.148Z,100.00
2023-05-12T09:15:38.805Z,100.00
2023-05-12T09:18:09.223Z,100.00
2023-05-12T09:20:39.357Z,100.00
2023-05-12T09:23:16.421Z,100.00
2023-05-12T09:25:48.391Z,100.00
2023-05-12T09:28:18.755Z,100.00
2023-05-12T09:30:49.044Z,100.00
2023-05-12T09:33:19.210Z,100.00
2023-05-12T09:35:49.555Z,100.00
2023-05-12T09:38:19.802Z,100.00
2023-05-12T09:40:50.465Z,100.00
2023-05-12T09:43:20.726Z,100.00
2023-05-12T09:45:52.181Z,100.00
2023-05-12T09:48:24.438Z,100.00
2023-05-12T09:50:56.345Z,100.00
2023-05-12T09:53:29.425Z,100.00
2023-05-12T09:55:59.786Z,100.00
2023-05-12T09:58:30.101Z,100.00
2023-05-12T10:01:20.808Z,100.00
2023-05-12T10:03:58.339Z,100.00
2023-05-12T10:06:32.524Z,100.00
2023-05-12T10:09:02.669Z,100.00
2023-05-12T10:11:53.804Z,100.00
2023-05-12T10:14:37.374Z,100.00
2023-05-12T10:17:11.456Z,100.00
2023-05-12T10:19:43.675Z,100.00
2023-05-12T10:22:14.042Z,100.00
2023-05-12T10:24:44.488Z,100.00
2023-05-12T10:27:14.646Z,100.00
2023-05-12T10:29:44.905Z,100.00
2023-05-12T10:32:16.088Z,100.00
2023-05-12T10:34:46.838Z,100.00
2023-05-12T10:37:17.195Z,100.00
2023-05-12T10:39:51.117Z,100.00
2023-05-12T10:42:28.268Z,100.00
2023-05-12T10:44:58.576Z,100.00
2023-05-12T10:47:38.170Z,100.00
2023-05-12T10:50:09.305Z,100.00
2023-05-12T10:52:45.015Z,100.00
2023-05-12T10:55:15.998Z,100.00
2023-05-12T10:57:53.427Z,100.00
2023-05-12T11:00:27.946Z,100.00
2023-05-12T11:03:04.102Z,100.00
2023-05-12T11:05:38.795Z,100.00
2023-05-12T11:08:09.669Z,100.00
2023-05-12T11:10:42.969Z,100.00
2023-05-12T11:13:13.193Z,100.00
2023-05-12T11:15:45.904Z,100.00
2023-05-12T11:18:22.081Z,100.00
2023-05-12T11:20:52.905Z,100.00
2023-05-12T11:23:27.016Z,100.00
2023-05-12T11:25:57.961Z,100.00
2023-05-12T11:28:28.588Z,100.00
2023-05-12T11:30:58.713Z,100.00
2023-05-12T11:33:28.875Z,100.00
2023-05-12T11:35:59.188Z,100.00
2023-05-12T11:38:31.445Z,100.00
2023-05-12T11:41:01.811Z,100.00
2023-05-12T11:43:32.019Z,100.00
2023-05-12T11:46:02.779Z,100.00
2023-05-12T11:48:36.387Z,100.00
2023-05-12T11:51:06.894Z,100.00
2023-05-12T11:53:41.901Z,100.00
2023-05-12T11:56:13.103Z,100.00
2023-05-12T11:58:43.359Z,100.00
2023-05-12T12:01:14.132Z,100.00
2023-05-12T12:03:50.309Z,100.00
2023-05-12T12:06:21.459Z,100.00
2023-05-12T12:09:03.731Z,100.00
2023-05-12T12:11:36.073Z,100.00
2023-05-12T12:14:06.487Z,100.00
2023-05-12T12:16:36.696Z,100.00
2023-05-12T12:19:10.110Z,100.00
2023-05-12T12:21:40.557Z,100.00
2023-05-12T12:24:10.843Z,100.00
2023-05-12T12:26:41.052Z,100.00
2023-05-12T12:29:11.338Z,100.00
2023-05-12T12:31:41.805Z,100.00
2023-05-12T12:34:12.089Z,100.00
2023-05-12T12:36:42.711Z,100.00
2023-05-12T12:39:13.379Z,100.00
2023-05-12T12:41:44.997Z,100.00
2023-05-12T12:44:15.426Z,100.00
2023-05-12T12:46:45.871Z,100.00
2023-05-12T12:49:16.579Z,100.00
2023-05-12T12:51:47.438Z,100.00
2023-05-12T12:54:17.627Z,100.00
2023-05-12T12:56:48.748Z,100.00
2023-05-12T12:59:19.525Z,100.00
2023-05-12T13:01:50.339Z,100.00
2023-05-12T13:04:24.174Z,100.00
2023-05-12T13:06:54.363Z,100.00
2023-05-12T13:09:24.967Z,100.00
2023-05-12T13:11:55.304Z,100.00
2023-05-12T13:14:26.436Z,100.00
2023-05-12T13:16:56.620Z,100.00
2023-05-12T13:19:28.943Z,100.00
2023-05-12T13:21:59.279Z,100.00
2023-05-12T13:24:29.868Z,100.00
2023-05-12T13:27:00.393Z,100.00
2023-05-12T13:29:31.306Z,100.00
2023-05-12T13:32:01.702Z,100.00
2023-05-12T13:34:31.838Z,100.00
2023-05-12T13:37:02.371Z,100.00
2023-05-12T13:39:33.452Z,100.00
2023-05-12T13:42:04.716Z,100.00
2023-05-12T13:44:35.094Z,100.00
2023-05-12T13:47:05.460Z,100.00
2023-05-12T13:49:36.361Z,100.00
2023-05-12T13:52:07.102Z,100.00
2023-05-12T13:54:37.455Z,100.00
2023-05-12T13:57:07.724Z,100.00
2023-05-12T13:59:37.838Z,100.00
2023-05-12T14:02:10.961Z,100.00
2023-05-12T14:04:41.449Z,100.00
2023-05-12T14:07:11.986Z,100.00
2023-05-12T14:09:42.661Z,100.00
2023-05-12T14:12:12.982Z,100.00
2023-05-12T14:14:48.573Z,100.00
2023-05-12T14:17:20.092Z,100.00
2023-05-12T14:19:51.044Z,100.00
2023-05-12T14:22:26.579Z,100.00
2023-05-12T14:24:57.268Z,100.00
2023-05-12T14:27:27.454Z,100.00
2023-05-12T14:29:57.847Z,100.00
2023-05-12T14:32:28.535Z,100.00
2023-05-12T14:34:58.947Z,100.00
2023-05-12T14:37:29.267Z,100.00
2023-05-12T14:39:59.623Z,100.00
2023-05-12T14:42:31.933Z,100.00
2023-05-12T14:45:02.344Z,100.00
2023-05-12T14:47:33.326Z,100.00
2023-05-12T14:50:03.807Z,100.00
2023-05-12T14:52:39.650Z,100.00
2023-05-12T14:55:13.503Z,100.00
2023-05-12T14:57:43.927Z,100.00
2023-05-12T15:00:14.796Z,100.00
2023-05-12T15:02:45.884Z,100.00
2023-05-12T15:05:17.679Z,100.00
2023-05-12T15:07:48.436Z,100.00
2023-05-12T15:10:19.051Z,100.00
2023-05-12T15:12:49.475Z,100.00
2023-05-12T15:15:20.259Z,100.00
2023-05-12T15:17:50.977Z,100.00
2023-05-12T15:20:22.155Z,100.00
2023-05-12T15:22:53.716Z,100.00
2023-05-12T15:25:24.066Z,100.00
2023-05-12T15:27:54.748Z,100.00
2023-05-12T15:30:25.424Z,100.00
2023-05-12T15:32:55.760Z,100.00
2023-05-12T15:35:26.411Z,100.00
2023-05-12T15:37:56.969Z,100.00
2023-05-12T15:40:28.216Z,100.00
2023-05-12T15:42:59.416Z,100.00
2023-05-12T15:45:32.798Z,100.00
2023-05-12T15:48:03.162Z,100.00
2023-05-12T15:50:33.806Z,100.00
2023-05-12T15:53:04.176Z,100.00
2023-05-12T15:55:34.905Z,100.00
2023-05-12T15:58:05.666Z,100.00
2023-05-12T16:00:35.995Z,100.00
2023-05-12T16:03:06.327Z,100.00
2023-05-12T16:05:39.362Z,100.00
2023-05-12T16:08:10.603Z,100.00
2023-05-12T16:10:41.320Z,100.00
2023-05-12T16:13:11.677Z,100.00
2023-05-12T16:15:42.028Z,100.00
2023-05-12T16:18:12.949Z,100.00
2023-05-12T16:20:45.901Z,100.00
2023-05-12T16:23:16.253Z,100.00
2023-05-12T16:25:47.149Z,100.00
2023-05-12T16:28:17.873Z,100.00
2023-05-12T16:30:48.331Z,100.00
2023-05-12T16:33:18.816Z,100.00
2023-05-12T16:35:49.025Z,100.00
2023-05-12T16:38:19.595Z,100.00
2023-05-12T16:40:50.801Z,100.00
2023-05-12T16:43:21.091Z,100.00
2023-05-12T16:45:59.761Z,100.00
2023-05-12T16:48:35.643Z,100.00
2023-05-12T16:51:07.595Z,100.00
2023-05-12T16:53:38.063Z,100.00
2023-05-12T16:56:08.802Z,100.00
2023-05-12T16:58:38.973Z,100.00
2023-05-12T17:01:09.747Z,100.00
2023-05-12T17:03:40.558Z,100.00
2023-05-12T17:06:11.142Z,100.00
2023-05-12T17:08:41.476Z,100.00
2023-05-12T17:11:11.738Z,100.00
2023-05-12T17:13:41.916Z,100.00
2023-05-12T17:16:11.998Z,100.00
2023-05-12T17:21:16.785Z,100.00
2023-05-12T17:23:47.212Z,100.00
2023-05-12T17:26:17.772Z,100.00
2023-05-12T17:28:48.444Z,100.00
2023-05-12T17:31:19.183Z,100.00
2023-05-12T17:33:49.931Z,100.00
2023-05-12T17:36:20.332Z,100.00
2023-05-12T17:38:52.030Z,100.00
2023-05-12T17:41:22.572Z,100.00
2023-05-12T17:43:53.807Z,100.00
2023-05-12T17:46:24.532Z,100.00
2023-05-12T17:48:54.777Z,100.00
2023-05-12T17:51:25.536Z,100.00
2023-05-12T17:53:55.813Z,100.00
2023-05-12T17:56:26.225Z,100.00
2023-05-12T17:58:57.032Z,100.00
2023-05-12T18:01:28.033Z,100.00
2023-05-12T18:03:58.461Z,100.00
2023-05-12T18:06:28.911Z,100.00
2023-05-12T18:08:59.258Z,100.00
2023-05-12T18:11:30.687Z,100.00
2023-05-12T18:14:03.377Z,100.00
2023-05-12T18:16:34.715Z,100.00
2023-05-12T18:19:05.462Z,100.00
2023-05-12T18:21:37.851Z,100.00
2023-05-12T18:24:08.387Z,100.00
2023-05-12T18:26:38.472Z,100.00
2023-05-12T18:29:08.870Z,100.00
2023-05-12T18:31:39.561Z,100.00
2023-05-12T18:34:09.990Z,100.00
2023-05-12T18:36:40.648Z,100.00
2023-05-12T18:39:12.000Z,100.00
2023-05-12T18:41:42.370Z,100.00
2023-05-12T18:44:13.073Z,100.00
2023-05-12T18:46:43.497Z,100.00
2023-05-12T18:49:13.695Z,100.00
2023-05-12T18:51:44.067Z,100.00
2023-05-12T18:54:14.464Z,100.00
2023-05-12T18:56:45.140Z,100.00
2023-05-12T18:59:15.745Z,100.00
2023-05-12T19:01:46.303Z,100.00
2023-05-12T19:04:17.628Z,100.00
2023-05-12T19:06:48.202Z,100.00
2023-05-12T19:09:18.680Z,100.00
2023-05-12T19:11:49.501Z,100.00
2023-05-12T19:14:21.219Z,100.00
2023-05-12T19:16:51.924Z,100.00
2023-05-12T19:19:22.691Z,100.00
2023-05-12T19:21:54.904Z,100.00
2023-05-12T19:24:26.528Z,100.00
2023-05-12T19:26:57.242Z,100.00
2023-05-12T19:29:29.276Z,100.00
2023-05-12T19:32:15.686Z,100.00
2023-05-12T19:34:59.695Z,100.00
2023-05-12T19:37:31.275Z,100.00
2023-05-12T19:40:01.797Z,100.00
2023-05-12T19:42:34.032Z,100.00
2023-05-12T19:45:04.486Z,100.00
2023-05-12T19:47:35.648Z,100.00
2023-05-12T19:50:06.254Z,100.00
2023-05-12T19:52:36.693Z,100.00
2023-05-12T19:55:07.943Z,100.00
2023-05-12T19:57:38.964Z,100.00
2023-05-12T20:00:10.058Z,100.00
2023-05-12T20:02:43.071Z,100.00
2023-05-12T20:05:13.896Z,100.00
2023-05-12T20:07:44.035Z,100.00
2023-05-12T20:10:14.569Z,100.00
2023-05-12T20:12:44.885Z,100.00
2023-05-12T20:15:15.566Z,100.00
2023-05-12T20:17:48.746Z,100.00
2023-05-12T20:20:19.240Z,100.00
2023-05-12T20:22:50.426Z,100.00
2023-05-12T20:25:21.308Z,100.00
2023-05-12T20:27:52.044Z,100.00
2023-05-12T20:30:22.380Z,100.00
2023-05-12T20:32:52.775Z,100.00
2023-05-12T20:35:23.542Z,100.00
2023-05-12T20:37:54.036Z,100.00
2023-05-12T20:40:24.984Z,100.00
2023-05-12T20:42:55.504Z,100.00
2023-05-12T20:45:26.009Z,100.00
2023-05-12T20:47:56.784Z,100.00
2023-05-12T20:50:28.769Z,100.00
2023-05-12T20:53:08.834Z,100.00
2023-05-12T20:55:39.324Z,100.00
2023-05-12T20:58:09.868Z,100.00
2023-05-12T21:00:40.017Z,100.00
2023-05-12T21:03:15.712Z,100.00
2023-05-12T21:05:49.469Z,100.00
2023-05-12T21:08:19.980Z,100.00
2023-05-12T21:10:50.294Z,100.00
2023-05-12T21:13:21.033Z,100.00
2023-05-12T21:15:51.494Z,100.00
2023-05-12T21:18:22.198Z,100.00
2023-05-12T21:20:52.505Z,100.00
2023-05-12T21:23:23.661Z,100.00
2023-05-12T21:25:57.410Z,100.00
2023-05-12T21:28:28.281Z,100.00
2023-05-12T21:30:58.703Z,100.00
2023-05-12T21:33:29.335Z,100.00
2023-05-12T21:35:59.659Z,100.00
2023-05-12T21:38:29.914Z,100.00
2023-05-12T21:41:00.316Z,100.00
2023-05-12T21:43:30.913Z,100.00
2023-05-12T21:46:05.138Z,100.00
2023-05-12T21:48:35.859Z,100.00
2023-05-12T21:51:06.333Z,100.00
2023-05-12T21:53:36.793Z,100.00
2023-05-12T21:56:07.520Z,100.00
2023-05-12T21:58:38.443Z,100.00
2023-05-12T22:01:09.159Z,100.00
2023-05-12T22:03:39.717Z,100.00
2023-05-12T22:06:10.199Z,100.00
2023-05-12T22:08:40.651Z,100.00
2023-05-12T22:11:11.428Z,100.00
2023-05-12T22:13:43.766Z,100.00
2023-05-12T22:16:14.334Z,100.00
2023-05-12T22:18:47.627Z,100.00
2023-05-12T22:21:18.105Z,100.00
2023-05-12T22:23:49.107Z,100.00
2023-05-12T22:26:19.536Z,100.00
2023-05-12T22:28:50.053Z,100.00
2023-05-12T22:31:20.426Z,100.00
2023-05-12T22:33:51.107Z,100.00
2023-05-12T22:36:21.442Z,100.00
2023-05-12T22:38:51.990Z,100.00
2023-05-12T22:41:22.347Z,100.00
2023-05-12T22:43:53.128Z,100.00
2023-05-12T22:46:23.596Z,100.00
2023-05-12T22:48:54.118Z,100.00
2023-05-12T22:51:24.754Z,100.00
2023-05-12T22:53:56.154Z,100.00
2023-05-12T22:56:26.539Z,100.00
2023-05-12T22:58:56.706Z,100.00
2023-05-12T23:01:27.236Z,100.00
2023-05-12T23:03:57.772Z,100.00
2023-05-12T23:06:28.152Z,100.00
2023-05-12T23:08:58.883Z,100.00
2023-05-12T23:11:29.098Z,100.00
2023-05-12T23:13:59.622Z,100.00
2023-05-12T23:16:30.197Z,100.00
2023-05-12T23:19:00.552Z,100.00
2023-05-12T23:21:30.878Z,100.00
2023-05-12T23:24:01.639Z,100.00
2023-05-12T23:26:32.035Z,100.00
2023-05-12T23:29:02.557Z,100.00
2023-05-12T23:31:32.803Z,100.00
2023-05-12T23:34:03.372Z,100.00
2023-05-12T23:36:33.730Z,100.00
2023-05-12T23:39:04.197Z,100.00
2023-05-12T23:41:35.427Z,100.00
2023-05-12T23:44:06.103Z,100.00
2023-05-12T23:46:36.672Z,100.00
2023-05-12T23:49:07.728Z,100.00
2023-05-12T23:51:37.934Z,100.00
2023-05-12T23:54:08.694Z,100.00
2023-05-12T23:56:39.002Z,100.00
2023-05-12T23:59:09.478Z,100.00
